Time;durP1;ratioP1;P1;durP2;ratioP2;P2;SDS_P1;SDS_P2;PMS_P1;PMS_P2;Temp;Humidity;BMP_temperature;BMP_pressure;BME280_temperature;BME280_humidity;BME280_pressure;Samples;Min_cycle;Max_cycle;Signal;HPM_P1;HPM_P2
2021/12/08 00:01:14;;;;;;;21.35;11.90;;;;;;;;;;1924521;74;21030;-42
2021/12/08 00:03:43;;;;;;;22.32;12.13;;;;;;;;;;1924625;74;21015;-42
2021/12/08 00:06:12;;;;;;;18.80;11.28;;;;;;;;;;1924556;74;21030;-42
2021/12/08 00:08:47;;;;;;;22.77;10.98;;;;;;;;;;1924544;74;21081;-42
2021/12/08 00:13:58;;;;;;;19.45;10.38;;;;;;;;;;1905315;75;21007;-43
2021/12/08 00:16:27;;;;;;;28.52;11.05;;;;;;;;;;1905335;75;21075;-43
2021/12/08 00:18:58;;;;;;;19.90;10.48;;;;;;;;;;1905467;75;21074;-42
2021/12/08 00:21:27;;;;;;;22.05;11.08;;;;;;;;;;1905240;75;21453;-42
2021/12/08 00:23:56;;;;;;;20.72;10.98;;;;;;;;;;1905308;75;21133;-42
2021/12/08 00:26:25;;;;;;;21.23;11.53;;;;;;;;;;1905234;75;21089;-42
2021/12/08 00:28:54;;;;;;;22.32;11.88;;;;;;;;;;1905359;75;21035;-42
2021/12/08 00:31:23;;;;;;;25.05;12.63;;;;;;;;;;1905231;75;21095;-42
2021/12/08 00:33:52;;;;;;;34.23;15.48;;;;;;;;;;1905192;75;21033;-42
2021/12/08 00:36:27;;;;;;;25.10;13.18;;;;;;;;;;1905353;75;21078;-42
2021/12/08 00:38:51;;;;;;;23.30;12.82;;;;;;;;;;1904965;74;21539;-42
2021/12/08 00:41:20;;;;;;;27.32;14.07;;;;;;;;;;1905233;75;21638;-42
2021/12/08 00:43:49;;;;;;;17.87;12.23;;;;;;;;;;1905251;75;21039;-42
2021/12/08 00:46:18;;;;;;;26.25;13.75;;;;;;;;;;1905232;75;21039;-42
2021/12/08 00:48:49;;;;;;;25.12;13.43;;;;;;;;;;1905251;75;21083;-42
2021/12/08 00:51:17;;;;;;;26.57;15.18;;;;;;;;;;1905184;74;21592;-42
2021/12/08 00:53:47;;;;;;;24.07;12.40;;;;;;;;;;1905354;75;21058;-42
2021/12/08 00:56:16;;;;;;;21.85;12.45;;;;;;;;;;1905334;74;20997;-42
2021/12/08 00:58:45;;;;;;;26.77;12.18;;;;;;;;;;1905284;75;21031;-42
2021/12/08 01:01:14;;;;;;;22.67;11.68;;;;;;;;;;1905118;75;21039;-41
2021/12/08 01:03:45;;;;;;;23.95;12.25;;;;;;;;;;1905228;74;21019;-42
2021/12/08 01:06:13;;;;;;;23.73;12.95;;;;;;;;;;1905197;74;21086;-42
2021/12/08 01:08:42;;;;;;;18.80;12.18;;;;;;;;;;1905254;75;21032;-43
2021/12/08 01:11:12;;;;;;;19.30;11.03;;;;;;;;;;1905350;75;21235;-42
2021/12/08 01:13:41;;;;;;;25.08;12.18;;;;;;;;;;1905357;75;21032;-42
2021/12/08 01:16:10;;;;;;;24.67;11.95;;;;;;;;;;1905249;74;21035;-43
2021/12/08 01:18:39;;;;;;;20.50;12.73;;;;;;;;;;1905354;75;21032;-42
2021/12/08 01:21:09;;;;;;;26.55;13.15;;;;;;;;;;1905273;75;21074;-42
2021/12/08 01:23:38;;;;;;;17.60;10.43;;;;;;;;;;1905320;75;21465;-42
2021/12/08 01:26:08;;;;;;;20.45;12.65;;;;;;;;;;1905160;75;21075;-42
2021/12/08 01:28:37;;;;;;;22.85;12.78;;;;;;;;;;1905343;75;21075;-41
2021/12/08 01:31:06;;;;;;;17.20;11.40;;;;;;;;;;1905307;75;21148;-43
2021/12/08 01:33:36;;;;;;;25.30;13.08;;;;;;;;;;1905360;75;21032;-43
2021/12/08 01:36:05;;;;;;;20.27;11.93;;;;;;;;;;1905209;74;21095;-42
2021/12/08 01:38:34;;;;;;;21.40;12.25;;;;;;;;;;1905358;75;21023;-42
2021/12/08 01:41:04;;;;;;;16.80;10.75;;;;;;;;;;1905186;75;21101;-42
2021/12/08 01:45:56;;;;;;;20.85;11.97;;;;;;;;;;1905152;75;21101;-41
2021/12/08 01:46:14;;;;;;;25.50;12.23;;;;;;;;;;1903359;75;21055;-42
2021/12/08 01:48:45;;;;;;;21.07;12.95;;;;;;;;;;1905338;75;21027;-42
2021/12/08 01:51:15;;;;;;;21.30;12.28;;;;;;;;;;1905327;75;21474;-43
2021/12/08 01:53:45;;;;;;;18.92;11.85;;;;;;;;;;1905394;75;21023;-42
2021/12/08 01:56:14;;;;;;;18.48;11.57;;;;;;;;;;1905386;75;21016;-43
2021/12/08 01:58:43;;;;;;;17.37;12.00;;;;;;;;;;1905328;74;21036;-44
2021/12/08 02:01:12;;;;;;;18.60;11.85;;;;;;;;;;1905210;75;21085;-42
2021/12/08 02:03:41;;;;;;;18.23;11.12;;;;;;;;;;1905393;74;20996;-43
2021/12/08 02:06:11;;;;;;;25.35;11.08;;;;;;;;;;1905238;74;21465;-43
2021/12/08 02:08:41;;;;;;;20.20;12.18;;;;;;;;;;1905196;75;21152;-43
2021/12/08 02:11:10;;;;;;;21.27;12.43;;;;;;;;;;1907047;74;21077;-42
2021/12/08 02:13:40;;;;;;;15.10;11.43;;;;;;;;;;1924763;74;21035;-42
2021/12/08 02:16:09;;;;;;;23.07;12.00;;;;;;;;;;1924669;74;20999;-42
2021/12/08 02:18:39;;;;;;;23.92;12.00;;;;;;;;;;1924612;74;21104;-43
2021/12/08 02:21:24;;;;;;;29.98;11.50;;;;;;;;;;1924742;74;21007;-43
2021/12/08 02:23:55;;;;;;;19.85;11.08;;;;;;;;;;1924607;74;21014;-42
2021/12/08 02:26:24;;;;;;;26.45;13.18;;;;;;;;;;1924686;74;21022;-43
2021/12/08 02:28:53;;;;;;;18.27;11.30;;;;;;;;;;1924585;74;21096;-43
2021/12/08 02:31:32;;;;;;;18.57;11.18;;;;;;;;;;1924503;74;21050;-42
2021/12/08 02:47:54;;;;;;;24.37;11.80;;;;;;;;;;1924607;74;21030;-43
2021/12/08 02:50:24;;;;;;;24.57;11.63;;;;;;;;;;1924727;74;21050;-43
2021/12/08 02:52:53;;;;;;;22.15;11.43;;;;;;;;;;1924673;74;20991;-43
2021/12/08 02:55:22;;;;;;;24.23;12.43;;;;;;;;;;1924629;74;21128;-43
2021/12/08 02:57:51;;;;;;;24.23;11.20;;;;;;;;;;1924490;74;21108;-43
2021/12/08 03:00:24;;;;;;;22.70;11.25;;;;;;;;;;1924582;74;21019;-43
2021/12/08 03:02:52;;;;;;;22.30;11.38;;;;;;;;;;1924520;74;21038;-43
2021/12/08 03:05:21;;;;;;;22.10;12.55;;;;;;;;;;1924500;74;21022;-43
2021/12/08 03:07:50;;;;;;;29.23;12.75;;;;;;;;;;1924667;74;21027;-43
2021/12/08 03:10:20;;;;;;;26.73;14.25;;;;;;;;;;1924640;74;21031;-42
2021/12/08 03:12:49;;;;;;;330.73;113.22;;;;;;;;;;1924602;74;21085;-43
2021/12/08 03:15:18;;;;;;;195.68;72.45;;;;;;;;;;1924771;74;21270;-42
2021/12/08 03:17:47;;;;;;;97.15;40.60;;;;;;;;;;1924532;74;21094;-42
2021/12/08 03:20:21;;;;;;;116.17;46.23;;;;;;;;;;1924557;74;21003;-43
2021/12/08 03:22:49;;;;;;;129.03;46.55;;;;;;;;;;1924451;74;21621;-43
2021/12/08 03:25:20;;;;;;;45.90;23.85;;;;;;;;;;1924661;74;21609;-42
2021/12/08 03:28:02;;;;;;;50.15;22.75;;;;;;;;;;1924826;74;21633;-43
2021/12/08 03:30:26;;;;;;;45.05;18.65;;;;;;;;;;1922836;74;21485;-43
2021/12/08 03:32:55;;;;;;;34.92;17.15;;;;;;;;;;1924050;74;21522;-43
2021/12/08 03:35:19;;;;;;;38.28;19.30;;;;;;;;;;1924088;74;21477;-42
2021/12/08 03:37:48;;;;;;;40.28;20.72;;;;;;;;;;1924819;74;21140;-42
2021/12/08 03:40:20;;;;;;;46.25;20.90;;;;;;;;;;1924602;74;21084;-42
2021/12/08 03:42:50;;;;;;;32.08;15.43;;;;;;;;;;1924554;74;21316;-42
2021/12/08 03:45:20;;;;;;;26.20;13.72;;;;;;;;;;1924644;74;21070;-42
2021/12/08 03:47:50;;;;;;;27.55;13.48;;;;;;;;;;1924751;74;20987;-43
2021/12/08 03:50:19;;;;;;;27.77;14.87;;;;;;;;;;1924697;74;21148;-42
2021/12/08 03:52:48;;;;;;;24.52;14.07;;;;;;;;;;1924632;74;21097;-41
2021/12/08 03:55:17;;;;;;;26.33;13.90;;;;;;;;;;1924643;74;21101;-41
2021/12/08 03:57:46;;;;;;;21.77;13.25;;;;;;;;;;1924717;74;21085;-42
2021/12/08 04:00:16;;;;;;;24.92;13.30;;;;;;;;;;1924543;74;21018;-42
2021/12/08 04:02:45;;;;;;;32.58;17.07;;;;;;;;;;1924605;74;21015;-42
2021/12/08 04:05:19;;;;;;;23.38;14.50;;;;;;;;;;1924592;74;21022;-42
2021/12/08 04:07:45;;;;;;;26.82;15.90;;;;;;;;;;1924078;74;21445;-42
2021/12/08 04:10:20;;;;;;;25.48;13.53;;;;;;;;;;1924580;74;21022;-42
2021/12/08 04:12:46;;;;;;;23.73;12.65;;;;;;;;;;1923138;74;21066;-43
2021/12/08 04:15:16;;;;;;;27.05;14.95;;;;;;;;;;1924530;74;21018;-42
2021/12/08 04:17:46;;;;;;;26.20;15.13;;;;;;;;;;1924420;74;20990;-42
2021/12/08 04:20:16;;;;;;;35.85;15.48;;;;;;;;;;1924484;74;21097;-43
2021/12/08 04:22:46;;;;;;;31.45;15.15;;;;;;;;;;1924431;74;21035;-43
2021/12/08 04:25:16;;;;;;;44.30;20.55;;;;;;;;;;1924491;74;21015;-42
2021/12/08 04:27:45;;;;;;;28.23;17.32;;;;;;;;;;1924431;74;21093;-42
2021/12/08 04:30:21;;;;;;;36.93;15.55;;;;;;;;;;1924571;74;21080;-42
2021/12/08 04:32:50;;;;;;;35.33;16.37;;;;;;;;;;1924579;74;21076;-42
2021/12/08 04:35:19;;;;;;;31.20;14.85;;;;;;;;;;1924444;74;21090;-41
2021/12/08 04:37:50;;;;;;;27.20;14.35;;;;;;;;;;1924561;74;21030;-41
2021/12/08 04:41:07;;;;;;;33.20;19.15;;;;;;;;;;1924413;74;21038;-42
2021/12/08 04:45:40;;;;;;;30.88;14.95;;;;;;;;;;1924492;74;21054;-42
2021/12/08 04:50:59;;;;;;;29.32;14.20;;;;;;;;;;1924540;74;21108;-43
2021/12/08 04:53:32;;;;;;;27.30;13.70;;;;;;;;;;1921457;74;21481;-43
2021/12/08 05:01:21;;;;;;;25.52;14.45;;;;;;;;;;1924569;74;21003;-42
2021/12/08 05:04:39;;;;;;;23.57;13.78;;;;;;;;;;1923407;74;21046;-43
2021/12/08 05:09:04;;;;;;;30.60;16.10;;;;;;;;;;1924626;74;21014;-42
2021/12/08 05:11:34;;;;;;;23.62;12.78;;;;;;;;;;1924704;74;21072;-43
2021/12/08 05:14:04;;;;;;;21.40;12.47;;;;;;;;;;1910828;74;21024;-42
2021/12/08 05:16:33;;;;;;;23.85;12.65;;;;;;;;;;1905368;75;21028;-43
2021/12/08 05:19:03;;;;;;;34.45;14.47;;;;;;;;;;1905447;75;21023;-43
2021/12/08 05:21:33;;;;;;;46.70;25.68;;;;;;;;;;1905265;75;21012;-43
2021/12/08 05:24:06;;;;;;;25.40;14.60;;;;;;;;;;1905159;75;21043;-43
2021/12/08 05:26:39;;;;;;;23.30;13.83;;;;;;;;;;1905164;74;21011;-43
2021/12/08 05:29:09;;;;;;;30.68;16.17;;;;;;;;;;1905193;75;21051;-43
2021/12/08 05:31:38;;;;;;;37.98;15.98;;;;;;;;;;1904347;74;21095;-43
2021/12/08 05:34:07;;;;;;;24.60;13.75;;;;;;;;;;1905221;75;21023;-42
2021/12/08 05:36:36;;;;;;;24.02;12.95;;;;;;;;;;1905285;75;21097;-43
2021/12/08 05:39:09;;;;;;;37.17;16.10;;;;;;;;;;1905232;75;21035;-43
2021/12/08 05:41:39;;;;;;;28.80;15.20;;;;;;;;;;1905208;75;21090;-43
2021/12/08 05:44:09;;;;;;;34.18;16.30;;;;;;;;;;1905249;75;21042;-43
2021/12/08 05:46:42;;;;;;;35.43;15.98;;;;;;;;;;1905299;74;21059;-44
2021/12/08 05:49:11;;;;;;;30.97;16.17;;;;;;;;;;1905094;74;21489;-43
2021/12/08 05:51:41;;;;;;;25.32;15.03;;;;;;;;;;1905523;75;21007;-42
2021/12/08 05:54:12;;;;;;;25.82;15.60;;;;;;;;;;1905131;75;20997;-42
2021/12/08 05:56:41;;;;;;;29.12;14.93;;;;;;;;;;1905315;75;21077;-43
2021/12/08 05:59:11;;;;;;;33.58;16.23;;;;;;;;;;1905223;75;21019;-42
2021/12/08 06:01:51;;;;;;;30.77;15.10;;;;;;;;;;1905113;75;21091;-43
2021/12/08 06:04:21;;;;;;;25.92;14.93;;;;;;;;;;1905293;75;21023;-42
2021/12/08 06:06:50;;;;;;;30.92;15.70;;;;;;;;;;1905216;75;21020;-43
2021/12/08 06:09:20;;;;;;;25.08;13.68;;;;;;;;;;1905135;74;21035;-43
2021/12/08 06:11:49;;;;;;;27.27;13.10;;;;;;;;;;1905264;75;20996;-44
2021/12/08 06:14:19;;;;;;;18.50;11.88;;;;;;;;;;1905232;74;21095;-43
2021/12/08 06:16:49;;;;;;;26.07;13.90;;;;;;;;;;1905259;75;21028;-43
2021/12/08 06:19:19;;;;;;;21.70;13.13;;;;;;;;;;1905298;75;21066;-43
2021/12/08 06:21:49;;;;;;;21.48;13.48;;;;;;;;;;1905118;75;21124;-43
2021/12/08 06:24:18;;;;;;;22.62;13.10;;;;;;;;;;1905234;75;21481;-43
2021/12/08 06:26:47;;;;;;;27.62;12.98;;;;;;;;;;1905070;75;21172;-43
2021/12/08 06:29:17;;;;;;;24.35;13.53;;;;;;;;;;1905255;75;21036;-44
2021/12/08 06:31:47;;;;;;;22.17;13.38;;;;;;;;;;1905235;75;21097;-43
2021/12/08 06:34:17;;;;;;;21.65;13.00;;;;;;;;;;1905179;75;21109;-43
2021/12/08 06:36:53;;;;;;;27.27;16.57;;;;;;;;;;1905231;74;21032;-43
2021/12/08 06:39:24;;;;;;;34.75;18.62;;;;;;;;;;1904311;74;21079;-42
2021/12/08 06:41:54;;;;;;;27.67;15.85;;;;;;;;;;1905163;75;21019;-43
2021/12/08 06:44:27;;;;;;;24.70;13.15;;;;;;;;;;1905363;75;21112;-43
2021/12/08 06:46:57;;;;;;;22.98;13.03;;;;;;;;;;1905149;74;21047;-43
2021/12/08 06:49:26;;;;;;;23.05;12.45;;;;;;;;;;1905203;74;21058;-43
2021/12/08 06:51:56;;;;;;;21.30;11.48;;;;;;;;;;1905105;74;21031;-43
2021/12/08 06:54:26;;;;;;;23.77;11.88;;;;;;;;;;1905178;74;21063;-43
2021/12/08 06:56:56;;;;;;;24.72;13.25;;;;;;;;;;1905164;74;20988;-42
2021/12/08 06:59:26;;;;;;;31.50;14.65;;;;;;;;;;1905267;74;20991;-43
2021/12/08 07:02:05;;;;;;;26.33;13.58;;;;;;;;;;1905396;75;20992;-43
2021/12/08 07:05:12;;;;;;;19.55;13.70;;;;;;;;;;1904814;74;21125;-43
2021/12/08 07:07:29;;;;;;;23.62;13.35;;;;;;;;;;1903962;74;21086;-42
2021/12/08 07:09:59;;;;;;;17.23;10.95;;;;;;;;;;1905232;75;21078;-43
2021/12/08 07:12:35;;;;;;;21.27;13.22;;;;;;;;;;1904249;74;21066;-43
2021/12/08 07:15:17;;;;;;;29.00;14.60;;;;;;;;;;1905319;74;21040;-43
2021/12/08 07:17:49;;;;;;;36.23;21.73;;;;;;;;;;1864202;74;21148;-43
2021/12/08 07:20:34;;;;;;;35.03;19.57;;;;;;;;;;1905182;75;21337;-43
2021/12/08 07:22:50;;;;;;;23.95;14.55;;;;;;;;;;1904300;74;21048;-44
2021/12/08 07:25:20;;;;;;;27.58;14.90;;;;;;;;;;1904283;75;21063;-44
2021/12/08 07:27:49;;;;;;;70.08;18.17;;;;;;;;;;1904467;75;21128;-43
2021/12/08 07:30:19;;;;;;;54.88;17.00;;;;;;;;;;1904328;75;21066;-43
2021/12/08 07:32:49;;;;;;;47.10;16.57;;;;;;;;;;1904573;74;21083;-45
2021/12/08 07:35:25;;;;;;;49.58;16.55;;;;;;;;;;1904560;74;21063;-42
2021/12/08 07:37:54;;;;;;;46.02;16.25;;;;;;;;;;1904250;74;21090;-42
2021/12/08 07:40:24;;;;;;;43.85;14.73;;;;;;;;;;1904605;75;21093;-42
2021/12/08 07:42:58;;;;;;;59.98;15.30;;;;;;;;;;1904572;75;21016;-42
2021/12/08 07:45:32;;;;;;;30.25;13.90;;;;;;;;;;1904499;74;21106;-42
2021/12/08 07:48:01;;;;;;;38.92;16.75;;;;;;;;;;1904850;75;21016;-44
2021/12/08 07:50:31;;;;;;;27.52;13.70;;;;;;;;;;1904431;75;21023;-43
2021/12/08 07:53:01;;;;;;;24.98;12.80;;;;;;;;;;1899334;74;20984;-41
2021/12/08 07:55:31;;;;;;;27.32;14.03;;;;;;;;;;1898840;75;21007;-43
2021/12/08 07:58:00;;;;;;;23.85;13.80;;;;;;;;;;1872552;75;21015;-42
2021/12/08 08:00:30;;;;;;;36.90;18.48;;;;;;;;;;1880129;75;21112;-42
2021/12/08 08:02:59;;;;;;;40.78;24.18;;;;;;;;;;1886500;74;21082;-42
2021/12/08 08:05:28;;;;;;;46.08;26.10;;;;;;;;;;1889701;75;21082;-43
2021/12/08 08:08:01;;;;;;;47.80;22.20;;;;;;;;;;1888061;75;21033;-43
2021/12/08 08:10:28;;;;;;;30.48;15.43;;;;;;;;;;1885630;74;21572;-42
2021/12/08 08:13:01;;;;;;;32.25;13.60;;;;;;;;;;1885171;75;21023;-41
2021/12/08 08:15:28;;;;;;;22.30;12.03;;;;;;;;;;1901712;74;21591;-43
2021/12/08 08:18:06;;;;;;;38.53;24.20;;;;;;;;;;1901985;74;21024;-43
2021/12/08 08:20:28;;;;;;;45.17;25.72;;;;;;;;;;1900531;74;21012;-43
2021/12/08 08:22:57;;;;;;;36.50;21.10;;;;;;;;;;1902642;74;21014;-43
2021/12/08 08:25:27;;;;;;;34.33;20.40;;;;;;;;;;1908096;74;21112;-43
2021/12/08 08:27:56;;;;;;;32.93;17.30;;;;;;;;;;1903291;74;22256;-43
2021/12/08 08:30:26;;;;;;;25.00;15.23;;;;;;;;;;1903932;74;21097;-42
2021/12/08 08:32:56;;;;;;;20.68;11.68;;;;;;;;;;1903893;74;21061;-43
2021/12/08 08:35:29;;;;;;;22.27;12.15;;;;;;;;;;1906966;74;21053;-43
2021/12/08 08:38:00;;;;;;;26.07;11.22;;;;;;;;;;1905890;74;21146;-42
2021/12/08 08:40:31;;;;;;;25.08;11.53;;;;;;;;;;1906197;74;21482;-41
2021/12/08 08:43:00;;;;;;;36.20;17.23;;;;;;;;;;1909573;74;21115;-43
2021/12/08 08:45:33;;;;;;;29.90;15.43;;;;;;;;;;1906722;74;21010;-42
2021/12/08 08:48:03;;;;;;;29.48;14.07;;;;;;;;;;1903459;74;21082;-42
2021/12/08 08:50:36;;;;;;;27.00;13.78;;;;;;;;;;1907840;74;20974;-42
2021/12/08 08:53:05;;;;;;;31.73;13.80;;;;;;;;;;1915254;74;21015;-41
2021/12/08 08:55:35;;;;;;;51.30;21.70;;;;;;;;;;1907521;74;21003;-42
2021/12/08 08:58:04;;;;;;;111.03;38.58;;;;;;;;;;1907789;74;21102;-42
2021/12/08 09:00:34;;;;;;;224.40;66.22;;;;;;;;;;1904046;74;21151;-41
2021/12/08 09:03:04;;;;;;;453.95;119.75;;;;;;;;;;1893943;74;21113;-42
2021/12/08 09:05:37;;;;;;;350.50;102.10;;;;;;;;;;1896181;74;21093;-42
2021/12/08 09:08:07;;;;;;;242.10;75.78;;;;;;;;;;1909400;74;21008;-42
2021/12/08 09:10:36;;;;;;;63.70;28.25;;;;;;;;;;1907300;74;21016;-42
2021/12/08 09:13:06;;;;;;;65.62;26.75;;;;;;;;;;1909298;74;20999;-42
2021/12/08 09:15:40;;;;;;;36.70;21.52;;;;;;;;;;1898772;74;21060;-42
2021/12/08 09:18:13;;;;;;;36.95;20.27;;;;;;;;;;1878021;75;21029;-42
2021/12/08 09:20:44;;;;;;;33.18;18.73;;;;;;;;;;1881556;75;21371;-41
2021/12/08 09:23:15;;;;;;;24.98;17.67;;;;;;;;;;1878287;75;21107;-42
2021/12/08 09:25:47;;;;;;;26.90;16.42;;;;;;;;;;1889880;75;21000;-42
2021/12/08 09:28:17;;;;;;;26.57;14.65;;;;;;;;;;1888749;75;21096;-42
2021/12/08 09:30:47;;;;;;;24.12;13.70;;;;;;;;;;1884923;75;21007;-42
2021/12/08 09:33:17;;;;;;;25.65;14.05;;;;;;;;;;1888508;74;20979;-41
2021/12/08 09:35:47;;;;;;;16.12;10.75;;;;;;;;;;1886239;75;21017;-41
2021/12/08 09:38:17;;;;;;;19.85;9.73;;;;;;;;;;1887073;75;21486;-44
2021/12/08 09:40:53;;;;;;;17.75;9.50;;;;;;;;;;1890667;75;21099;-42
2021/12/08 09:43:25;;;;;;;19.65;9.95;;;;;;;;;;1890205;75;21071;-41
2021/12/08 09:45:55;;;;;;;22.75;10.23;;;;;;;;;;1890157;75;21497;-43
2021/12/08 09:48:27;;;;;;;13.28;8.98;;;;;;;;;;1886990;75;21062;-42
2021/12/08 09:50:55;;;;;;;15.68;10.18;;;;;;;;;;1886825;75;21523;-43
2021/12/08 09:53:23;;;;;;;17.48;9.48;;;;;;;;;;1889351;75;21502;-42
2021/12/08 09:55:52;;;;;;;25.65;10.72;;;;;;;;;;1885521;75;20999;-41
2021/12/08 09:58:21;;;;;;;16.87;9.53;;;;;;;;;;1888695;75;21019;-43
2021/12/08 10:00:52;;;;;;;19.02;9.83;;;;;;;;;;1887967;75;21052;-43
2021/12/08 10:03:22;;;;;;;19.05;9.10;;;;;;;;;;1886779;75;21131;-43
2021/12/08 10:05:50;;;;;;;17.92;10.08;;;;;;;;;;1889098;75;21077;-44
2021/12/08 10:08:19;;;;;;;14.70;9.03;;;;;;;;;;1888359;75;21021;-44
2021/12/08 10:10:48;;;;;;;14.75;8.45;;;;;;;;;;1886223;75;21087;-43
2021/12/08 10:13:17;;;;;;;17.65;9.08;;;;;;;;;;1887056;75;21027;-43
2021/12/08 10:15:46;;;;;;;14.55;8.30;;;;;;;;;;1894004;75;21035;-43
2021/12/08 10:18:15;;;;;;;20.80;8.28;;;;;;;;;;1899341;75;21035;-44
2021/12/08 10:20:55;;;;;;;13.30;7.72;;;;;;;;;;1897852;75;21024;-44
2021/12/08 10:23:29;;;;;;;18.98;9.33;;;;;;;;;;1899064;75;21536;-43
2021/12/08 10:26:02;;;;;;;13.50;9.10;;;;;;;;;;1895586;75;21064;-43
2021/12/08 10:28:32;;;;;;;12.43;8.60;;;;;;;;;;1895233;75;21094;-44
2021/12/08 10:31:14;;;;;;;18.45;8.55;;;;;;;;;;1898675;75;21011;-42
2021/12/08 10:34:01;;;;;;;11.48;7.87;;;;;;;;;;1899218;75;21063;-43
2021/12/08 10:39:08;;;;;;;18.87;6.85;;;;;;;;;;1882072;76;21600;-43
2021/12/08 10:41:44;;;;;;;17.48;7.30;;;;;;;;;;1881372;76;21126;-41
2021/12/08 10:44:13;;;;;;;15.15;8.45;;;;;;;;;;1882056;76;21029;-43
2021/12/08 10:46:42;;;;;;;58.60;38.00;;;;;;;;;;1882123;76;21017;-41
2021/12/08 10:49:25;;;;;;;16.10;8.40;;;;;;;;;;1881975;76;21049;-43
2021/12/08 10:54:36;;;;;;;14.03;7.70;;;;;;;;;;1881960;76;21592;-42
2021/12/08 10:57:06;;;;;;;17.52;7.78;;;;;;;;;;1882195;76;21045;-43
2021/12/08 10:59:52;;;;;;;16.07;6.75;;;;;;;;;;1879696;76;21126;-43
2021/12/08 11:02:38;;;;;;;17.52;7.60;;;;;;;;;;1882012;75;21044;-43
2021/12/08 11:05:08;;;;;;;13.48;6.40;;;;;;;;;;1882067;75;21122;-43
2021/12/08 11:07:37;;;;;;;12.25;6.35;;;;;;;;;;1882008;76;21024;-43
2021/12/08 11:10:13;;;;;;;20.85;6.37;;;;;;;;;;1885969;75;21081;-44
2021/12/08 11:12:43;;;;;;;15.25;8.10;;;;;;;;;;1851215;75;21078;-43
2021/12/08 11:15:22;;;;;;;13.20;5.92;;;;;;;;;;1897560;75;21058;-42
2021/12/08 11:18:11;;;;;;;14.80;7.12;;;;;;;;;;1896558;75;21021;-44
2021/12/08 11:20:44;;;;;;;14.53;5.60;;;;;;;;;;1910978;75;21050;-44
2021/12/08 11:23:16;;;;;;;19.92;7.00;;;;;;;;;;1892015;75;21507;-43
2021/12/08 11:25:46;;;;;;;13.55;7.12;;;;;;;;;;1895742;75;21498;-43
2021/12/08 11:28:18;;;;;;;16.32;7.08;;;;;;;;;;1898262;75;21000;-43
2021/12/08 11:30:47;;;;;;;15.65;8.10;;;;;;;;;;1896536;75;21479;-43
2021/12/08 11:33:18;;;;;;;19.70;8.25;;;;;;;;;;1898432;75;21031;-43
2021/12/08 11:35:47;;;;;;;16.52;7.70;;;;;;;;;;1895301;75;21005;-43
2021/12/08 11:38:17;;;;;;;16.20;6.75;;;;;;;;;;1900000;75;21015;-43
2021/12/08 11:40:46;;;;;;;13.83;7.22;;;;;;;;;;1897117;75;21082;-43
2021/12/08 11:43:15;;;;;;;17.75;8.63;;;;;;;;;;1883103;75;21036;-44
2021/12/08 11:45:44;;;;;;;34.85;11.50;;;;;;;;;;1889055;75;21102;-43
2021/12/08 11:48:23;;;;;;;31.73;10.95;;;;;;;;;;1882838;75;21032;-42
2021/12/08 11:51:09;;;;;;;25.70;8.88;;;;;;;;;;1898661;75;21021;-44
2021/12/08 11:53:38;;;;;;;22.75;8.85;;;;;;;;;;1900832;75;21085;-41
2021/12/08 11:56:07;;;;;;;28.02;11.03;;;;;;;;;;1890909;75;21100;-41
2021/12/08 11:58:38;;;;;;;21.60;7.92;;;;;;;;;;1905849;75;21090;-43
2021/12/08 12:01:07;;;;;;;25.48;10.25;;;;;;;;;;1913493;75;21560;-42
2021/12/08 12:03:35;;;;;;;22.70;9.50;;;;;;;;;;1912311;75;21101;-42
2021/12/08 12:06:04;;;;;;;34.25;11.55;;;;;;;;;;1913459;75;21086;-44
2021/12/08 12:08:33;;;;;;;53.10;14.63;;;;;;;;;;1913867;75;21035;-42
2021/12/08 12:11:02;;;;;;;66.00;18.77;;;;;;;;;;1914753;75;21027;-42
2021/12/08 12:13:31;;;;;;;62.08;14.38;;;;;;;;;;1914682;75;21027;-42
2021/12/08 12:16:00;;;;;;;49.55;15.18;;;;;;;;;;1916676;74;21046;-42
2021/12/08 12:18:30;;;;;;;22.27;10.05;;;;;;;;;;1924720;74;21132;-43
2021/12/08 12:21:12;;;;;;;26.10;9.93;;;;;;;;;;1924551;74;21058;-42
2021/12/08 12:23:59;;;;;;;23.67;10.32;;;;;;;;;;1924486;74;21043;-42
2021/12/08 12:26:34;;;;;;;26.77;10.68;;;;;;;;;;1924569;74;21148;-43
2021/12/08 12:29:04;;;;;;;16.40;7.30;;;;;;;;;;1924670;74;21047;-42
2021/12/08 12:31:52;;;;;;;10.78;9.40;;;;;;;;;;1924349;74;21061;-42
2021/12/08 12:34:22;;;;;;;13.18;5.08;;;;;;;;;;1923742;74;21074;-42
2021/12/08 12:36:51;;;;;;;15.80;5.83;;;;;;;;;;1923702;74;21014;-43
2021/12/08 12:39:23;;;;;;;11.50;4.83;;;;;;;;;;1924299;74;21066;-43
2021/12/08 12:42:14;;;;;;;7.30;3.65;;;;;;;;;;1924550;74;21011;-42
2021/12/08 12:44:45;;;;;;;9.80;5.17;;;;;;;;;;1924714;74;21519;-43
2021/12/08 12:47:21;;;;;;;13.95;4.97;;;;;;;;;;1924605;74;21011;-43
2021/12/08 12:49:46;;;;;;;7.12;4.58;;;;;;;;;;1923922;74;21445;-42
2021/12/08 12:52:16;;;;;;;18.15;5.97;;;;;;;;;;1924570;74;21010;-42
2021/12/08 12:54:45;;;;;;;10.82;5.35;;;;;;;;;;1924723;74;21027;-43
2021/12/08 12:57:14;;;;;;;16.37;5.58;;;;;;;;;;1924572;74;21105;-43
2021/12/08 12:59:52;;;;;;;23.87;5.80;;;;;;;;;;1924520;74;21007;-43
2021/12/08 13:02:25;;;;;;;11.22;5.35;;;;;;;;;;1922719;74;21538;-42
2021/12/08 13:04:58;;;;;;;13.22;6.28;;;;;;;;;;1924312;74;21097;-43
2021/12/08 13:07:27;;;;;;;9.30;6.03;;;;;;;;;;1924691;74;21030;-42
2021/12/08 13:10:00;;;;;;;18.12;5.83;;;;;;;;;;1924629;74;21096;-43
2021/12/08 13:12:30;;;;;;;63.00;20.23;;;;;;;;;;1923676;74;21054;-43
2021/12/08 13:15:25;;;;;;;18.07;6.25;;;;;;;;;;1923397;74;21047;-42
2021/12/08 13:17:53;;;;;;;18.67;5.90;;;;;;;;;;1907942;74;21501;-42
2021/12/08 13:20:23;;;;;;;8.90;5.40;;;;;;;;;;1889308;75;21051;-43
2021/12/08 13:22:54;;;;;;;11.38;5.35;;;;;;;;;;1905304;75;21059;-42
2021/12/08 13:25:24;;;;;;;10.88;5.70;;;;;;;;;;1905183;75;21015;-42
2021/12/08 13:27:53;;;;;;;11.68;5.25;;;;;;;;;;1905138;75;21099;-43
2021/12/08 13:30:23;;;;;;;13.05;5.17;;;;;;;;;;1905244;75;21097;-43
2021/12/08 13:32:57;;;;;;;17.37;6.05;;;;;;;;;;1905171;75;21036;-43
2021/12/08 13:35:35;;;;;;;12.43;5.58;;;;;;;;;;1904724;74;21473;-42
2021/12/08 13:38:04;;;;;;;18.32;6.08;;;;;;;;;;1905274;75;21082;-42
2021/12/08 13:40:49;;;;;;;15.08;5.90;;;;;;;;;;1905126;74;21004;-42
2021/12/08 13:43:35;;;;;;;16.23;5.95;;;;;;;;;;1905318;75;21082;-43
2021/12/08 13:46:02;;;;;;;;;;;;;;;;;;1908115;75;21553;-42
2021/12/08 13:48:32;;;;;;;15.55;6.97;;;;;;;;;;1905231;74;20379;-43
2021/12/08 13:51:17;;;;;;;14.10;6.00;;;;;;;;;;1905129;75;21118;-45
2021/12/08 13:53:45;;;;;;;26.17;7.90;;;;;;;;;;1905428;75;21012;-42
2021/12/08 13:56:14;;;;;;;28.10;7.97;;;;;;;;;;1905276;75;21028;-43
2021/12/08 13:58:43;;;;;;;26.50;7.90;;;;;;;;;;1905183;75;21105;-43
2021/12/08 14:01:16;;;;;;;16.70;7.78;;;;;;;;;;1905140;75;21039;-42
2021/12/08 14:03:46;;;;;;;23.67;8.53;;;;;;;;;;1905295;75;21028;-43
2021/12/08 14:06:14;;;;;;;20.02;8.53;;;;;;;;;;1905221;75;21024;-43
2021/12/08 14:08:44;;;;;;;18.15;8.33;;;;;;;;;;1905269;75;20999;-44
2021/12/08 14:11:14;;;;;;;18.98;8.65;;;;;;;;;;1905227;75;21028;-43
2021/12/08 14:13:44;;;;;;;24.20;9.48;;;;;;;;;;1905204;75;21027;-44
2021/12/08 14:16:14;;;;;;;27.27;12.90;;;;;;;;;;1905341;75;21089;-43
2021/12/08 14:18:46;;;;;;;31.75;13.85;;;;;;;;;;1905176;75;21101;-43
2021/12/08 14:21:16;;;;;;;38.67;14.03;;;;;;;;;;1905222;75;21105;-43
2021/12/08 14:23:47;;;;;;;66.02;33.50;;;;;;;;;;1904572;74;21043;-44
2021/12/08 14:26:23;;;;;;;84.55;37.93;;;;;;;;;;1905239;75;21545;-43
2021/12/08 14:28:53;;;;;;;45.08;25.08;;;;;;;;;;1905153;75;21538;-43
2021/12/08 14:31:32;;;;;;;60.10;20.75;;;;;;;;;;1905253;75;21505;-43
2021/12/08 14:34:14;;;;;;;53.95;19.00;;;;;;;;;;1905093;75;21032;-43
2021/12/08 14:36:46;;;;;;;68.57;23.67;;;;;;;;;;1905266;75;21027;-43
2021/12/08 14:39:22;;;;;;;78.28;26.50;;;;;;;;;;1905209;75;21024;-43
2021/12/08 14:41:53;;;;;;;61.42;27.87;;;;;;;;;;1905198;75;21497;-44
2021/12/08 14:44:24;;;;;;;59.20;27.62;;;;;;;;;;1905345;75;21019;-43
2021/12/08 14:46:53;;;;;;;45.80;22.85;;;;;;;;;;1905219;74;21031;-42
2021/12/08 14:49:28;;;;;;;51.28;23.45;;;;;;;;;;1905194;74;21110;-43
2021/12/08 14:51:57;;;;;;;47.23;21.90;;;;;;;;;;1904818;74;21493;-44
2021/12/08 14:54:26;;;;;;;48.17;22.82;;;;;;;;;;1905187;75;21026;-43
2021/12/08 14:57:02;;;;;;;42.15;20.17;;;;;;;;;;1905283;74;21074;-45
2021/12/08 14:59:32;;;;;;;35.90;20.37;;;;;;;;;;1905136;74;21023;-44
2021/12/08 15:02:01;;;;;;;32.45;15.72;;;;;;;;;;1905267;75;21046;-43
2021/12/08 15:04:30;;;;;;;28.87;14.30;;;;;;;;;;1905242;75;21102;-43
2021/12/08 15:07:00;;;;;;;28.20;12.58;;;;;;;;;;1905195;75;21093;-44
2021/12/08 15:09:32;;;;;;;32.10;13.65;;;;;;;;;;1905214;74;21549;-44
2021/12/08 15:12:01;;;;;;;44.65;16.23;;;;;;;;;;1905217;74;21133;-43
2021/12/08 15:14:31;;;;;;;36.05;16.12;;;;;;;;;;1905318;75;21007;-43
2021/12/08 15:17:00;;;;;;;40.23;15.43;;;;;;;;;;1904806;74;21108;-43
2021/12/08 15:19:29;;;;;;;32.15;15.40;;;;;;;;;;1905221;75;21089;-42